createdAt,value
2022-08-02T00:00:00.358Z,322.7
2022-08-02T00:05:00.322Z,324.9
2022-08-02T00:10:00.365Z,318.2
2022-08-02T00:15:00.324Z,301.4
2022-08-02T00:20:00.401Z,271.4
2022-08-02T00:25:00.330Z,257.2
2022-08-02T00:30:00.379Z,247.6
2022-08-02T00:35:00.363Z,247.5
2022-08-02T00:40:00.347Z,247.5
2022-08-02T00:45:00.336Z,291.6
2022-08-02T00:50:00.387Z,292.5
2022-08-02T00:55:00.408Z,292.5
2022-08-02T01:00:00.383Z,314.1
2022-08-02T01:05:00.371Z,293.9
2022-08-02T01:10:00.373Z,294.5
2022-08-02T01:15:00.362Z,292.7
2022-08-02T01:20:00.359Z,292.5
2022-08-02T01:25:00.415Z,270.3
2022-08-02T01:30:00.373Z,291.2
2022-08-02T01:35:00.351Z,304.8
2022-08-02T01:40:00.351Z,292.6
2022-08-02T01:45:00.398Z,292.5
2022-08-02T01:50:00.377Z,318.8
2022-08-02T01:55:00.340Z,322.0
2022-08-02T02:00:01.973Z,325.8
2022-08-02T02:05:00.317Z,312.7
2022-08-02T02:10:00.359Z,324.9
2022-08-02T02:15:00.354Z,294.8
2022-08-02T02:20:00.367Z,310.8
2022-08-02T02:25:00.486Z,311.8
2022-08-02T02:30:00.371Z,296.4
2022-08-02T02:35:00.334Z,299.0
2022-08-02T02:40:00.434Z,301.1
2022-08-02T02:45:00.383Z,312.3
2022-08-02T02:50:00.358Z,301.3
2022-08-02T02:55:00.320Z,298.7
2022-08-02T03:00:00.370Z,298.4
2022-08-02T03:05:00.330Z,293.6
2022-08-02T03:10:00.384Z,275.8
2022-08-02T03:15:00.329Z,272.3
2022-08-02T03:20:00.383Z,303.7
2022-08-02T03:25:00.335Z,275.6
2022-08-02T03:30:00.364Z,252.3
2022-08-02T03:35:00.321Z,247.5
2022-08-02T03:40:00.371Z,231.9
2022-08-02T03:45:09.226Z,247.0
2022-08-02T03:50:00.380Z,248.8
2022-08-02T03:55:00.237Z,244.3
2022-08-02T04:00:00.352Z,205.5
2022-08-02T04:05:00.335Z,202.5
2022-08-02T04:10:00.347Z,200.5
2022-08-02T04:15:00.329Z,196.9
2022-08-02T04:20:00.365Z,228.2
2022-08-02T04:25:01.277Z,226.6
2022-08-02T04:30:00.369Z,238.6
2022-08-02T04:35:21.096Z,229.9
2022-08-02T04:40:00.419Z,187.2
2022-08-02T04:45:00.351Z,183.8
2022-08-02T04:50:00.373Z,175.3
2022-08-02T04:55:00.361Z,186.8
2022-08-02T05:00:00.378Z,180.5
2022-08-02T05:05:00.306Z,189.1
2022-08-02T05:10:04.058Z,186.3
2022-08-02T05:15:00.357Z,202.8
2022-08-02T05:20:00.379Z,194.4
2022-08-02T05:25:00.382Z,187.6
2022-08-02T05:30:00.356Z,188.0
2022-08-02T05:35:00.326Z,172.0
2022-08-02T05:40:01.440Z,203.6
2022-08-02T05:45:00.356Z,186.5
2022-08-02T05:50:00.387Z,201.8
2022-08-02T05:55:00.368Z,256.0
2022-08-02T06:00:03.381Z,215.6
2022-08-02T06:05:00.350Z,224.5
2022-08-02T06:10:00.378Z,204.7
2022-08-02T06:15:00.355Z,201.1
2022-08-02T06:20:00.412Z,200.4
2022-08-02T06:25:00.348Z,236.3
2022-08-02T06:30:00.424Z,195.3
2022-08-02T06:35:00.354Z,240.4
2022-08-02T06:40:00.370Z,227.5
2022-08-02T06:45:00.254Z,257.1
2022-08-02T06:50:00.729Z,192.9
2022-08-02T06:55:00.760Z,205.3
2022-08-02T07:00:00.368Z,201.5
2022-08-02T07:05:00.359Z,185.0
2022-08-02T07:10:02.226Z,195.7
2022-08-02T07:15:00.472Z,269.3
2022-08-02T07:20:00.399Z,247.8
2022-08-02T07:25:00.421Z,222.7
2022-08-02T07:30:00.375Z,252.2
2022-08-02T07:35:07.789Z,202.8
2022-08-02T07:40:10.352Z,214.9
2022-08-02T07:45:00.252Z,196.3
2022-08-02T07:50:00.372Z,218.7
2022-08-02T07:55:00.341Z,265.6
2022-08-02T08:00:00.528Z,200.9
2022-08-02T08:05:00.349Z,273.3
2022-08-02T08:10:00.396Z,199.2
2022-08-02T08:15:00.379Z,293.8
2022-08-02T08:20:00.370Z,277.6
2022-08-02T08:25:00.355Z,172.2
2022-08-02T08:30:00.407Z,62.4
2022-08-02T08:35:00.407Z,209.2
2022-08-02T08:40:00.373Z,327.0
2022-08-02T08:45:01.997Z,274.3
2022-08-02T08:50:00.399Z,246.9
2022-08-02T08:55:00.372Z,260.6
2022-08-02T09:00:00.382Z,246.7
2022-08-02T09:05:00.378Z,193.8
2022-08-02T09:10:00.454Z,195.7
2022-08-02T09:15:00.363Z,194.2
2022-08-02T09:20:00.372Z,228.2
2022-08-02T09:25:00.372Z,218.3
2022-08-02T09:30:14.238Z,189.0
2022-08-02T09:35:00.386Z,239.2
2022-08-02T09:40:00.458Z,207.1
2022-08-02T09:45:00.458Z,246.8
2022-08-02T09:50:03.653Z,202.1
2022-08-02T09:55:00.365Z,199.6
2022-08-02T10:00:00.425Z,237.7
2022-08-02T10:05:02.556Z,250.4
2022-08-02T10:10:00.381Z,313.8
2022-08-02T10:15:00.409Z,325.7
2022-08-02T10:20:05.543Z,288.7
2022-08-02T10:25:00.242Z,233.1
2022-08-02T10:30:00.398Z,278.7
2022-08-02T10:35:26.503Z,269.3
2022-08-02T10:40:00.373Z,252.6
2022-08-02T10:45:00.388Z,267.1
2022-08-02T10:50:00.823Z,229.2
2022-08-02T10:55:00.353Z,279.0
2022-08-02T11:00:00.365Z,248.6
2022-08-02T11:05:00.342Z,189.0
2022-08-02T11:10:00.377Z,250.5
2022-08-02T11:15:00.344Z,258.6
2022-08-02T11:20:00.374Z,190.2
2022-08-02T11:25:00.719Z,213.3
2022-08-02T11:30:00.360Z,286.5
2022-08-02T11:35:00.370Z,207.3
2022-08-02T11:40:00.382Z,235.5
2022-08-02T11:45:00.427Z,169.3
2022-08-02T11:50:00.345Z,197.7
2022-08-02T11:55:00.389Z,191.3
2022-08-02T12:00:00.426Z,198.4
2022-08-02T12:05:02.987Z,187.2
2022-08-02T12:10:00.367Z,209.0
2022-08-02T12:15:00.380Z,183.6
2022-08-02T12:20:00.380Z,192.9
2022-08-02T12:25:00.383Z,187.6
2022-08-02T12:30:00.421Z,217.8
2022-08-02T12:35:00.338Z,177.5
2022-08-02T12:40:00.391Z,220.4
2022-08-02T12:45:00.635Z,187.4
2022-08-02T12:50:00.815Z,243.9
2022-08-02T12:55:00.346Z,216.0
2022-08-02T13:00:00.399Z,179.8
2022-08-02T13:05:00.360Z,194.9
2022-08-02T13:10:04.052Z,233.5
2022-08-02T13:15:00.350Z,229.4
2022-08-02T13:20:02.218Z,193.1
2022-08-02T13:25:00.357Z,268.5
2022-08-02T13:30:00.354Z,260.8
2022-08-02T13:35:00.547Z,200.0
2022-08-02T13:40:22.966Z,318.9
2022-08-02T13:45:14.722Z,205.0
2022-08-02T13:50:03.526Z,217.3
2022-08-02T13:55:01.413Z,216.6
2022-08-02T14:00:00.470Z,172.6
2022-08-02T14:05:00.347Z,191.7
2022-08-02T14:10:00.354Z,254.6
2022-08-02T14:15:00.383Z,218.8
2022-08-02T14:20:00.363Z,197.8
2022-08-02T14:25:09.765Z,200.6
2022-08-02T14:30:00.365Z,166.8
2022-08-02T14:35:00.331Z,205.6
2022-08-02T14:40:01.604Z,187.6
2022-08-02T14:45:00.365Z,206.9
2022-08-02T14:50:00.795Z,276.1
2022-08-02T14:55:00.357Z,247.0
2022-08-02T15:00:00.387Z,203.4
2022-08-02T15:05:00.368Z,216.5
2022-08-02T15:10:00.404Z,198.4
2022-08-02T15:15:00.347Z,270.2
2022-08-02T15:20:26.323Z,202.1
2022-08-02T15:25:00.345Z,191.8
2022-08-02T15:30:01.239Z,203.1
2022-08-02T15:35:00.455Z,175.5
2022-08-02T15:40:00.337Z,192.2
2022-08-02T15:45:00.460Z,199.5
2022-08-02T15:50:00.353Z,196.4
2022-08-02T15:55:07.803Z,206.4
2022-08-02T16:00:00.421Z,184.7
2022-08-02T16:05:00.393Z,231.8
2022-08-02T16:10:00.398Z,203.2
2022-08-02T16:15:00.395Z,209.5
2022-08-02T16:20:00.498Z,201.2
2022-08-02T16:25:00.354Z,198.4
2022-08-02T16:30:00.340Z,204.9
2022-08-02T16:35:09.582Z,203.7
2022-08-02T16:40:00.395Z,189.6
2022-08-02T16:45:00.350Z,206.6
2022-08-02T16:50:11.407Z,176.2
2022-08-02T16:55:00.389Z,177.6
2022-08-02T17:00:00.752Z,203.4
2022-08-02T17:05:00.364Z,195.5
2022-08-02T17:10:09.991Z,201.2
2022-08-02T17:15:53.063Z,226.7
2022-08-02T17:20:00.745Z,247.3
2022-08-02T17:25:00.362Z,210.6
2022-08-02T17:30:02.988Z,225.4
2022-08-02T17:35:04.332Z,181.4
2022-08-02T17:40:00.406Z,180.6
2022-08-02T17:45:27.899Z,199.7
2022-08-02T17:50:03.495Z,179.7
2022-08-02T17:55:00.408Z,180.0
2022-08-02T18:00:05.055Z,180.0
2022-08-02T18:05:00.381Z,159.7
2022-08-02T18:10:00.883Z,157.5
2022-08-02T18:15:14.853Z,159.2
2022-08-02T18:20:11.485Z,179.9
2022-08-02T18:25:09.993Z,137.1
2022-08-02T18:30:05.278Z,135.0
2022-08-02T18:35:00.327Z,135.0
2022-08-02T18:40:00.368Z,135.0
2022-08-02T18:45:00.371Z,135.0
2022-08-02T18:50:02.645Z,135.0
2022-08-02T18:55:00.437Z,135.0
2022-08-02T19:00:01.265Z,135.0
2022-08-02T19:05:00.365Z,135.0
2022-08-02T19:10:00.370Z,135.0
2022-08-02T19:15:01.655Z,135.0
2022-08-02T19:20:01.534Z,114.8
2022-08-02T19:25:01.987Z,112.5
2022-08-02T19:30:02.765Z,112.5
2022-08-02T19:35:00.431Z,112.5
2022-08-02T19:40:01.982Z,112.5
2022-08-02T19:45:00.356Z,112.5
2022-08-02T19:50:00.899Z,112.5
2022-08-02T19:55:58.911Z,112.5
2022-08-02T20:00:00.393Z,112.5
2022-08-02T20:05:27.195Z,112.5
2022-08-02T20:10:00.400Z,112.5
2022-08-02T20:15:00.398Z,112.5
2022-08-02T20:20:00.384Z,112.5
2022-08-02T20:25:00.386Z,112.5
2022-08-02T20:30:00.362Z,112.5
2022-08-02T20:35:00.365Z,112.4
2022-08-02T20:40:00.344Z,112.5
2022-08-02T20:45:00.398Z,112.5
2022-08-02T20:50:02.844Z,112.5
2022-08-02T20:55:00.480Z,112.5
2022-08-02T21:00:00.368Z,112.5
2022-08-02T21:05:18.733Z,112.5
2022-08-02T21:10:01.644Z,112.5
2022-08-02T21:15:00.358Z,112.5
2022-08-02T21:20:00.366Z,112.5
2022-08-02T21:25:00.930Z,112.5
2022-08-02T21:30:00.368Z,112.5
2022-08-02T21:35:00.342Z,112.6
2022-08-02T21:40:00.487Z,112.5
2022-08-02T21:45:00.354Z,112.5
2022-08-02T21:50:16.915Z,269.9
2022-08-02T21:55:00.324Z,270.0
2022-08-02T22:00:00.426Z,270.0
2022-08-02T22:05:03.611Z,270.0
2022-08-02T22:10:00.438Z,270.0
2022-08-02T22:15:01.043Z,270.0
2022-08-02T22:20:00.362Z,270.0
2022-08-02T22:25:04.892Z,270.0
2022-08-02T22:30:03.462Z,270.0
2022-08-02T22:35:00.666Z,212.8
2022-08-02T22:40:10.043Z,202.5
2022-08-02T22:45:00.624Z,202.5
2022-08-02T22:50:01.705Z,202.5
2022-08-02T22:55:02.598Z,202.5
2022-08-02T23:00:00.785Z,202.5
2022-08-02T23:05:00.338Z,202.5
2022-08-02T23:10:00.467Z,202.5
2022-08-02T23:15:00.353Z,202.5
2022-08-02T23:20:00.349Z,202.5
2022-08-02T23:25:00.404Z,202.5
2022-08-02T23:30:00.392Z,202.5
2022-08-02T23:35:00.337Z,202.5
2022-08-02T23:40:00.380Z,202.5
2022-08-02T23:45:00.353Z,202.5
2022-08-02T23:50:00.370Z,202.5
2022-08-02T23:55:00.347Z,202.5
